sensor_id;sensor_type;location;lat;lon;timestamp;P1;durP1;ratioP1;P2;durP2;ratioP2
49590;SDS011;35496;-21.974;-46.800;2023-02-10T00:01:36;6.15;;;2.97;;
49590;SDS011;35496;-21.974;-46.800;2023-02-10T00:06:23;5.85;;;3.40;;
49590;SDS011;35496;-21.974;-46.800;2023-02-10T00:08:52;10.10;;;5.85;;
49590;SDS011;35496;-21.974;-46.800;2023-02-10T00:11:20;3.78;;;3.00;;
49590;SDS011;35496;-21.974;-46.800;2023-02-10T00:14:10;3.92;;;2.55;;
49590;SDS011;35496;-21.974;-46.800;2023-02-10T00:16:38;6.18;;;3.72;;
49590;SDS011;35496;-21.974;-46.800;2023-02-10T00:19:05;7.78;;;5.28;;
49590;SDS011;35496;-21.974;-46.800;2023-02-10T00:21:32;8.35;;;5.18;;
49590;SDS011;35496;-21.974;-46.800;2023-02-10T00:23:59;11.05;;;3.80;;
49590;SDS011;35496;-21.974;-46.800;2023-02-10T00:26:25;9.10;;;4.57;;
49590;SDS011;35496;-21.974;-46.800;2023-02-10T00:28:52;9.68;;;4.38;;
49590;SDS011;35496;-21.974;-46.800;2023-02-10T00:31:18;4.93;;;4.43;;
49590;SDS011;35496;-21.974;-46.800;2023-02-10T00:33:46;5.90;;;3.22;;
49590;SDS011;35496;-21.974;-46.800;2023-02-10T00:36:14;6.93;;;4.40;;
49590;SDS011;35496;-21.974;-46.800;2023-02-10T00:38:41;7.78;;;4.47;;
49590;SDS011;35496;-21.974;-46.800;2023-02-10T00:41:09;7.80;;;5.07;;
49590;SDS011;35496;-21.974;-46.800;2023-02-10T00:43:38;8.90;;;5.63;;
49590;SDS011;35496;-21.974;-46.800;2023-02-10T00:46:05;9.70;;;4.88;;
49590;SDS011;35496;-21.974;-46.800;2023-02-10T00:48:32;3.97;;;3.05;;
49590;SDS011;35496;-21.974;-46.800;2023-02-10T00:51:00;6.80;;;3.92;;
49590;SDS011;35496;-21.974;-46.800;2023-02-10T00:53:26;6.10;;;4.20;;
49590;SDS011;35496;-21.974;-46.800;2023-02-10T00:55:53;6.38;;;4.28;;
49590;SDS011;35496;-21.974;-46.800;2023-02-10T00:58:20;9.32;;;4.68;;
49590;SDS011;35496;-21.974;-46.800;2023-02-10T01:00:47;4.03;;;3.67;;
49590;SDS011;35496;-21.974;-46.800;2023-02-10T01:03:14;4.45;;;3.60;;
49590;SDS011;35496;-21.974;-46.800;2023-02-10T01:05:41;5.65;;;3.55;;
49590;SDS011;35496;-21.974;-46.800;2023-02-10T01:08:10;9.10;;;4.93;;
49590;SDS011;35496;-21.974;-46.800;2023-02-10T01:10:37;10.68;;;6.57;;
49590;SDS011;35496;-21.974;-46.800;2023-02-10T01:13:05;9.57;;;4.50;;
49590;SDS011;35496;-21.974;-46.800;2023-02-10T01:15:33;4.40;;;3.95;;
49590;SDS011;35496;-21.974;-46.800;2023-02-10T01:18:00;4.90;;;4.10;;
49590;SDS011;35496;-21.974;-46.800;2023-02-10T01:20:27;5.50;;;4.63;;
49590;SDS011;35496;-21.974;-46.800;2023-02-10T01:22:53;4.13;;;3.28;;
49590;SDS011;35496;-21.974;-46.800;2023-02-10T01:25:20;4.03;;;2.45;;
49590;SDS011;35496;-21.974;-46.800;2023-02-10T01:27:47;3.03;;;2.80;;
49590;SDS011;35496;-21.974;-46.800;2023-02-10T01:30:13;3.20;;;2.88;;
49590;SDS011;35496;-21.974;-46.800;2023-02-10T01:32:44;3.15;;;2.85;;
49590;SDS011;35496;-21.974;-46.800;2023-02-10T01:35:10;3.17;;;2.88;;
49590;SDS011;35496;-21.974;-46.800;2023-02-10T01:37:37;4.13;;;2.85;;
49590;SDS011;35496;-21.974;-46.800;2023-02-10T01:40:03;1.80;;;1.70;;
49590;SDS011;35496;-21.974;-46.800;2023-02-10T01:42:30;2.70;;;1.60;;
49590;SDS011;35496;-21.974;-46.800;2023-02-10T01:45:06;2.75;;;1.95;;
49590;SDS011;35496;-21.974;-46.800;2023-02-10T01:47:42;2.72;;;1.98;;
49590;SDS011;35496;-21.974;-46.800;2023-02-10T01:50:12;7.22;;;2.40;;
49590;SDS011;35496;-21.974;-46.800;2023-02-10T01:52:40;6.38;;;2.85;;
49590;SDS011;35496;-21.974;-46.800;2023-02-10T01:55:09;2.78;;;2.33;;
49590;SDS011;35496;-21.974;-46.800;2023-02-10T01:57:38;1.50;;;1.40;;
49590;SDS011;35496;-21.974;-46.800;2023-02-10T02:00:09;1.92;;;1.80;;
49590;SDS011;35496;-21.974;-46.800;2023-02-10T02:02:38;5.40;;;2.50;;
49590;SDS011;35496;-21.974;-46.800;2023-02-10T02:05:17;4.03;;;2.55;;
49590;SDS011;35496;-21.974;-46.800;2023-02-10T02:08:09;16.38;;;11.18;;
49590;SDS011;35496;-21.974;-46.800;2023-02-10T02:18:33;5.68;;;5.13;;
49590;SDS011;35496;-21.974;-46.800;2023-02-10T02:21:17;14.63;;;7.20;;
49590;SDS011;35496;-21.974;-46.800;2023-02-10T02:24:00;7.28;;;4.93;;
49590;SDS011;35496;-21.974;-46.800;2023-02-10T02:26:51;7.60;;;5.88;;
49590;SDS011;35496;-21.974;-46.800;2023-02-10T02:32:38;12.00;;;5.85;;
49590;SDS011;35496;-21.974;-46.800;2023-02-10T02:35:11;11.20;;;7.15;;
49590;SDS011;35496;-21.974;-46.800;2023-02-10T02:37:43;5.97;;;3.97;;
49590;SDS011;35496;-21.974;-46.800;2023-02-10T02:40:13;7.75;;;5.15;;
49590;SDS011;35496;-21.974;-46.800;2023-02-10T02:42:41;6.88;;;4.50;;
49590;SDS011;35496;-21.974;-46.800;2023-02-10T02:45:10;6.28;;;3.65;;
49590;SDS011;35496;-21.974;-46.800;2023-02-10T02:56:23;6.82;;;4.03;;
49590;SDS011;35496;-21.974;-46.800;2023-02-10T02:59:33;11.75;;;5.93;;
49590;SDS011;35496;-21.974;-46.800;2023-02-10T03:02:12;9.60;;;5.03;;
49590;SDS011;35496;-21.974;-46.800;2023-02-10T03:04:42;8.50;;;4.97;;
49590;SDS011;35496;-21.974;-46.800;2023-02-10T03:07:09;10.93;;;5.22;;
49590;SDS011;35496;-21.974;-46.800;2023-02-10T03:09:36;3.88;;;3.55;;
49590;SDS011;35496;-21.974;-46.800;2023-02-10T03:12:03;8.07;;;5.22;;
49590;SDS011;35496;-21.974;-46.800;2023-02-10T03:14:30;13.23;;;5.15;;
49590;SDS011;35496;-21.974;-46.800;2023-02-10T03:16:57;4.10;;;3.80;;
49590;SDS011;35496;-21.974;-46.800;2023-02-10T03:19:23;5.35;;;3.50;;
49590;SDS011;35496;-21.974;-46.800;2023-02-10T03:21:50;6.32;;;4.07;;
49590;SDS011;35496;-21.974;-46.800;2023-02-10T03:24:17;10.10;;;5.38;;
49590;SDS011;35496;-21.974;-46.800;2023-02-10T03:26:43;10.98;;;4.90;;
49590;SDS011;35496;-21.974;-46.800;2023-02-10T03:29:10;10.35;;;5.30;;
49590;SDS011;35496;-21.974;-46.800;2023-02-10T03:31:38;10.77;;;4.75;;
49590;SDS011;35496;-21.974;-46.800;2023-02-10T03:34:04;10.25;;;5.53;;
49590;SDS011;35496;-21.974;-46.800;2023-02-10T03:36:32;7.03;;;4.65;;
49590;SDS011;35496;-21.974;-46.800;2023-02-10T03:38:59;9.20;;;5.80;;
49590;SDS011;35496;-21.974;-46.800;2023-02-10T03:41:26;14.02;;;6.50;;
49590;SDS011;35496;-21.974;-46.800;2023-02-10T03:43:53;7.55;;;5.18;;
49590;SDS011;35496;-21.974;-46.800;2023-02-10T03:46:20;13.85;;;5.30;;
49590;SDS011;35496;-21.974;-46.800;2023-02-10T03:48:46;9.45;;;5.85;;
49590;SDS011;35496;-21.974;-46.800;2023-02-10T03:51:13;14.02;;;6.53;;
49590;SDS011;35496;-21.974;-46.800;2023-02-10T03:53:40;10.65;;;3.72;;
49590;SDS011;35496;-21.974;-46.800;2023-02-10T03:56:07;6.05;;;2.97;;
49590;SDS011;35496;-21.974;-46.800;2023-02-10T03:58:33;5.07;;;3.45;;
49590;SDS011;35496;-21.974;-46.800;2023-02-10T04:01:07;2.22;;;2.13;;
49590;SDS011;35496;-21.974;-46.800;2023-02-10T04:03:35;4.32;;;2.70;;
49590;SDS011;35496;-21.974;-46.800;2023-02-10T04:06:01;7.93;;;3.35;;
49590;SDS011;35496;-21.974;-46.800;2023-02-10T04:08:28;6.53;;;3.33;;
49590;SDS011;35496;-21.974;-46.800;2023-02-10T04:10:54;4.32;;;3.00;;
49590;SDS011;35496;-21.974;-46.800;2023-02-10T04:13:21;3.13;;;1.83;;
49590;SDS011;35496;-21.974;-46.800;2023-02-10T04:15:47;3.25;;;2.33;;
49590;SDS011;35496;-21.974;-46.800;2023-02-10T04:18:14;11.55;;;3.05;;
49590;SDS011;35496;-21.974;-46.800;2023-02-10T04:20:41;5.20;;;3.17;;
49590;SDS011;35496;-21.974;-46.800;2023-02-10T04:23:07;4.65;;;3.03;;
49590;SDS011;35496;-21.974;-46.800;2023-02-10T04:25:34;4.22;;;2.50;;
49590;SDS011;35496;-21.974;-46.800;2023-02-10T04:28:00;4.40;;;3.53;;
49590;SDS011;35496;-21.974;-46.800;2023-02-10T04:30:27;4.90;;;2.40;;
49590;SDS011;35496;-21.974;-46.800;2023-02-10T04:32:53;5.28;;;2.88;;
49590;SDS011;35496;-21.974;-46.800;2023-02-10T04:35:20;2.78;;;1.98;;
49590;SDS011;35496;-21.974;-46.800;2023-02-10T04:37:46;5.00;;;2.70;;
49590;SDS011;35496;-21.974;-46.800;2023-02-10T04:40:13;3.35;;;3.05;;
49590;SDS011;35496;-21.974;-46.800;2023-02-10T04:42:40;5.97;;;3.25;;
49590;SDS011;35496;-21.974;-46.800;2023-02-10T04:45:06;2.83;;;2.55;;
49590;SDS011;35496;-21.974;-46.800;2023-02-10T04:47:33;3.58;;;2.45;;
49590;SDS011;35496;-21.974;-46.800;2023-02-10T04:50:00;4.38;;;2.40;;
49590;SDS011;35496;-21.974;-46.800;2023-02-10T04:52:26;4.47;;;2.55;;
49590;SDS011;35496;-21.974;-46.800;2023-02-10T04:54:53;2.85;;;2.65;;
49590;SDS011;35496;-21.974;-46.800;2023-02-10T04:57:19;2.42;;;2.20;;
49590;SDS011;35496;-21.974;-46.800;2023-02-10T04:59:46;4.00;;;2.50;;
49590;SDS011;35496;-21.974;-46.800;2023-02-10T05:02:13;2.05;;;1.85;;
49590;SDS011;35496;-21.974;-46.800;2023-02-10T05:04:39;5.93;;;2.75;;
49590;SDS011;35496;-21.974;-46.800;2023-02-10T05:07:06;2.42;;;2.22;;
49590;SDS011;35496;-21.974;-46.800;2023-02-10T05:09:32;8.63;;;2.83;;
49590;SDS011;35496;-21.974;-46.800;2023-02-10T05:11:59;2.15;;;1.88;;
49590;SDS011;35496;-21.974;-46.800;2023-02-10T05:14:26;2.20;;;1.92;;
49590;SDS011;35496;-21.974;-46.800;2023-02-10T05:16:52;1.65;;;1.55;;
49590;SDS011;35496;-21.974;-46.800;2023-02-10T05:19:19;2.25;;;2.05;;
49590;SDS011;35496;-21.974;-46.800;2023-02-10T05:21:45;7.53;;;2.78;;
49590;SDS011;35496;-21.974;-46.800;2023-02-10T05:24:12;3.15;;;2.20;;
49590;SDS011;35496;-21.974;-46.800;2023-02-10T05:26:39;6.57;;;2.50;;
49590;SDS011;35496;-21.974;-46.800;2023-02-10T05:29:05;3.00;;;2.55;;
49590;SDS011;35496;-21.974;-46.800;2023-02-10T05:31:32;3.03;;;2.83;;
49590;SDS011;35496;-21.974;-46.800;2023-02-10T05:33:58;6.07;;;2.97;;
49590;SDS011;35496;-21.974;-46.800;2023-02-10T05:36:25;7.18;;;3.30;;
49590;SDS011;35496;-21.974;-46.800;2023-02-10T05:38:51;8.02;;;3.60;;
49590;SDS011;35496;-21.974;-46.800;2023-02-10T05:41:36;10.35;;;3.15;;
49590;SDS011;35496;-21.974;-46.800;2023-02-10T05:44:03;5.25;;;4.20;;
49590;SDS011;35496;-21.974;-46.800;2023-02-10T05:46:30;2.65;;;2.45;;
49590;SDS011;35496;-21.974;-46.800;2023-02-10T05:48:56;5.43;;;3.15;;
49590;SDS011;35496;-21.974;-46.800;2023-02-10T05:51:23;4.28;;;2.20;;
49590;SDS011;35496;-21.974;-46.800;2023-02-10T05:53:49;10.25;;;2.67;;
49590;SDS011;35496;-21.974;-46.800;2023-02-10T05:56:16;1.92;;;1.83;;
49590;SDS011;35496;-21.974;-46.800;2023-02-10T05:58:43;2.55;;;1.67;;
49590;SDS011;35496;-21.974;-46.800;2023-02-10T06:01:09;3.35;;;1.80;;
49590;SDS011;35496;-21.974;-46.800;2023-02-10T06:03:37;4.00;;;1.85;;
49590;SDS011;35496;-21.974;-46.800;2023-02-10T06:06:04;4.18;;;2.22;;
49590;SDS011;35496;-21.974;-46.800;2023-02-10T06:08:31;4.05;;;2.90;;
49590;SDS011;35496;-21.974;-46.800;2023-02-10T06:10:57;4.00;;;2.55;;
49590;SDS011;35496;-21.974;-46.800;2023-02-10T06:13:27;3.25;;;1.95;;
49590;SDS011;35496;-21.974;-46.800;2023-02-10T06:15:53;6.53;;;2.83;;
49590;SDS011;35496;-21.974;-46.800;2023-02-10T06:18:20;2.60;;;2.13;;
49590;SDS011;35496;-21.974;-46.800;2023-02-10T06:20:47;3.13;;;2.25;;
49590;SDS011;35496;-21.974;-46.800;2023-02-10T06:23:16;4.35;;;1.90;;
49590;SDS011;35496;-21.974;-46.800;2023-02-10T06:25:44;4.13;;;1.70;;
49590;SDS011;35496;-21.974;-46.800;2023-02-10T06:28:12;2.90;;;2.08;;
49590;SDS011;35496;-21.974;-46.800;2023-02-10T06:30:40;3.80;;;2.40;;
49590;SDS011;35496;-21.974;-46.800;2023-02-10T06:33:07;3.30;;;2.35;;
49590;SDS011;35496;-21.974;-46.800;2023-02-10T06:35:34;2.33;;;2.08;;
49590;SDS011;35496;-21.974;-46.800;2023-02-10T06:38:00;5.32;;;3.00;;
49590;SDS011;35496;-21.974;-46.800;2023-02-10T06:40:27;4.03;;;3.05;;
49590;SDS011;35496;-21.974;-46.800;2023-02-10T06:42:53;3.25;;;2.60;;
49590;SDS011;35496;-21.974;-46.800;2023-02-10T06:45:20;6.22;;;3.35;;
49590;SDS011;35496;-21.974;-46.800;2023-02-10T06:47:46;6.32;;;3.75;;
49590;SDS011;35496;-21.974;-46.800;2023-02-10T06:50:13;5.82;;;3.45;;
49590;SDS011;35496;-21.974;-46.800;2023-02-10T06:52:40;4.18;;;2.83;;
49590;SDS011;35496;-21.974;-46.800;2023-02-10T06:55:07;5.00;;;3.67;;
49590;SDS011;35496;-21.974;-46.800;2023-02-10T06:57:34;4.50;;;2.42;;
49590;SDS011;35496;-21.974;-46.800;2023-02-10T07:00:05;5.93;;;3.17;;
49590;SDS011;35496;-21.974;-46.800;2023-02-10T07:02:34;3.50;;;2.60;;
49590;SDS011;35496;-21.974;-46.800;2023-02-10T07:05:00;6.25;;;2.80;;
49590;SDS011;35496;-21.974;-46.800;2023-02-10T07:07:31;5.53;;;2.95;;
49590;SDS011;35496;-21.974;-46.800;2023-02-10T07:09:58;3.75;;;2.28;;
49590;SDS011;35496;-21.974;-46.800;2023-02-10T07:12:24;3.00;;;1.90;;
49590;SDS011;35496;-21.974;-46.800;2023-02-10T07:14:51;2.97;;;2.70;;
49590;SDS011;35496;-21.974;-46.800;2023-02-10T07:17:18;5.20;;;2.22;;
49590;SDS011;35496;-21.974;-46.800;2023-02-10T07:19:45;7.68;;;3.05;;
49590;SDS011;35496;-21.974;-46.800;2023-02-10T07:22:12;3.08;;;1.88;;
49590;SDS011;35496;-21.974;-46.800;2023-02-10T07:24:39;10.52;;;3.22;;
49590;SDS011;35496;-21.974;-46.800;2023-02-10T07:27:06;6.55;;;2.15;;
49590;SDS011;35496;-21.974;-46.800;2023-02-10T07:29:32;2.00;;;1.77;;
49590;SDS011;35496;-21.974;-46.800;2023-02-10T07:32:00;7.35;;;2.80;;
49590;SDS011;35496;-21.974;-46.800;2023-02-10T07:34:27;4.93;;;1.92;;
49590;SDS011;35496;-21.974;-46.800;2023-02-10T07:36:56;5.60;;;2.85;;
49590;SDS011;35496;-21.974;-46.800;2023-02-10T07:39:23;4.93;;;2.10;;
49590;SDS011;35496;-21.974;-46.800;2023-02-10T07:41:50;11.50;;;2.33;;
49590;SDS011;35496;-21.974;-46.800;2023-02-10T07:44:16;5.63;;;1.98;;
49590;SDS011;35496;-21.974;-46.800;2023-02-10T07:46:44;4.60;;;2.25;;
49590;SDS011;35496;-21.974;-46.800;2023-02-10T07:49:11;4.68;;;3.05;;
49590;SDS011;35496;-21.974;-46.800;2023-02-10T07:51:37;2.60;;;1.90;;
49590;SDS011;35496;-21.974;-46.800;2023-02-10T07:54:04;4.28;;;2.25;;
49590;SDS011;35496;-21.974;-46.800;2023-02-10T07:56:31;2.83;;;1.80;;
49590;SDS011;35496;-21.974;-46.800;2023-02-10T07:58:58;11.35;;;2.25;;
49590;SDS011;35496;-21.974;-46.800;2023-02-10T08:01:25;3.15;;;2.03;;
49590;SDS011;35496;-21.974;-46.800;2023-02-10T08:03:52;7.07;;;2.08;;
49590;SDS011;35496;-21.974;-46.800;2023-02-10T08:06:19;4.18;;;2.22;;
49590;SDS011;35496;-21.974;-46.800;2023-02-10T08:08:47;3.20;;;2.00;;
49590;SDS011;35496;-21.974;-46.800;2023-02-10T08:11:14;3.55;;;2.35;;
49590;SDS011;35496;-21.974;-46.800;2023-02-10T08:13:41;2.17;;;1.20;;
49590;SDS011;35496;-21.974;-46.800;2023-02-10T08:16:08;7.40;;;2.38;;
49590;SDS011;35496;-21.974;-46.800;2023-02-10T08:18:37;3.03;;;2.28;;
49590;SDS011;35496;-21.974;-46.800;2023-02-10T08:21:04;2.00;;;1.67;;
49590;SDS011;35496;-21.974;-46.800;2023-02-10T08:23:30;2.30;;;1.65;;
49590;SDS011;35496;-21.974;-46.800;2023-02-10T08:25:57;3.15;;;1.73;;
49590;SDS011;35496;-21.974;-46.800;2023-02-10T08:28:24;7.97;;;2.20;;
49590;SDS011;35496;-21.974;-46.800;2023-02-10T08:30:51;2.78;;;1.70;;
49590;SDS011;35496;-21.974;-46.800;2023-02-10T08:33:17;2.63;;;1.85;;
49590;SDS011;35496;-21.974;-46.800;2023-02-10T08:35:44;3.85;;;1.92;;
49590;SDS011;35496;-21.974;-46.800;2023-02-10T08:38:10;3.13;;;1.80;;
49590;SDS011;35496;-21.974;-46.800;2023-02-10T08:40:37;4.85;;;1.85;;
49590;SDS011;35496;-21.974;-46.800;2023-02-10T08:43:03;2.50;;;1.85;;
49590;SDS011;35496;-21.974;-46.800;2023-02-10T08:45:30;4.68;;;2.50;;
49590;SDS011;35496;-21.974;-46.800;2023-02-10T08:47:57;4.95;;;2.03;;
49590;SDS011;35496;-21.974;-46.800;2023-02-10T08:50:24;1.73;;;1.63;;
49590;SDS011;35496;-21.974;-46.800;2023-02-10T08:52:51;6.85;;;2.53;;
49590;SDS011;35496;-21.974;-46.800;2023-02-10T08:55:17;4.60;;;2.85;;
49590;SDS011;35496;-21.974;-46.800;2023-02-10T08:57:44;6.50;;;2.83;;
49590;SDS011;35496;-21.974;-46.800;2023-02-10T09:00:11;5.38;;;1.90;;
49590;SDS011;35496;-21.974;-46.800;2023-02-10T09:02:38;5.82;;;2.47;;
49590;SDS011;35496;-21.974;-46.800;2023-02-10T09:05:04;4.15;;;1.63;;
49590;SDS011;35496;-21.974;-46.800;2023-02-10T09:07:32;2.92;;;2.10;;
49590;SDS011;35496;-21.974;-46.800;2023-02-10T09:09:59;4.38;;;1.98;;
49590;SDS011;35496;-21.974;-46.800;2023-02-10T09:12:25;3.70;;;2.22;;
49590;SDS011;35496;-21.974;-46.800;2023-02-10T09:14:52;5.28;;;1.73;;
49590;SDS011;35496;-21.974;-46.800;2023-02-10T09:17:18;4.93;;;2.08;;
49590;SDS011;35496;-21.974;-46.800;2023-02-10T09:19:45;4.50;;;2.15;;
49590;SDS011;35496;-21.974;-46.800;2023-02-10T09:22:12;3.83;;;1.85;;
49590;SDS011;35496;-21.974;-46.800;2023-02-10T09:24:38;3.17;;;1.50;;
49590;SDS011;35496;-21.974;-46.800;2023-02-10T09:27:07;2.85;;;1.60;;
49590;SDS011;35496;-21.974;-46.800;2023-02-10T09:29:34;2.30;;;1.88;;
49590;SDS011;35496;-21.974;-46.800;2023-02-10T09:32:00;3.10;;;1.80;;
49590;SDS011;35496;-21.974;-46.800;2023-02-10T09:34:27;1.67;;;1.48;;
49590;SDS011;35496;-21.974;-46.800;2023-02-10T09:36:55;7.47;;;2.40;;
49590;SDS011;35496;-21.974;-46.800;2023-02-10T09:39:23;1.77;;;1.55;;
49590;SDS011;35496;-21.974;-46.800;2023-02-10T09:41:55;5.22;;;3.08;;
49590;SDS011;35496;-21.974;-46.800;2023-02-10T09:44:28;1.65;;;1.35;;
49590;SDS011;35496;-21.974;-46.800;2023-02-10T09:54:54;3.25;;;2.00;;
49590;SDS011;35496;-21.974;-46.800;2023-02-10T09:57:43;2.30;;;2.10;;
49590;SDS011;35496;-21.974;-46.800;2023-02-10T10:03:05;2.25;;;2.05;;
49590;SDS011;35496;-21.974;-46.800;2023-02-10T10:05:38;7.68;;;3.03;;
49590;SDS011;35496;-21.974;-46.800;2023-02-10T10:10:52;2.83;;;1.85;;
49590;SDS011;35496;-21.974;-46.800;2023-02-10T10:13:27;3.58;;;2.42;;
49590;SDS011;35496;-21.974;-46.800;2023-02-10T10:18:45;1.88;;;1.25;;
49590;SDS011;35496;-21.974;-46.800;2023-02-10T10:22:00;4.35;;;3.03;;
49590;SDS011;35496;-21.974;-46.800;2023-02-10T10:24:57;2.25;;;1.20;;
49590;SDS011;35496;-21.974;-46.800;2023-02-10T10:30:25;6.68;;;2.55;;
49590;SDS011;35496;-21.974;-46.800;2023-02-10T10:33:29;8.38;;;2.03;;
49590;SDS011;35496;-21.974;-46.800;2023-02-10T10:38:45;2.95;;;1.58;;
49590;SDS011;35496;-21.974;-46.800;2023-02-10T10:41:25;9.48;;;2.25;;
49590;SDS011;35496;-21.974;-46.800;2023-02-10T10:43:56;7.53;;;1.92;;
49590;SDS011;35496;-21.974;-46.800;2023-02-10T10:46:38;3.35;;;1.83;;
49590;SDS011;35496;-21.974;-46.800;2023-02-10T10:49:15;3.67;;;1.90;;
49590;SDS011;35496;-21.974;-46.800;2023-02-10T10:51:42;1.67;;;1.27;;
49590;SDS011;35496;-21.974;-46.800;2023-02-10T10:54:17;3.03;;;1.25;;
49590;SDS011;35496;-21.974;-46.800;2023-02-10T10:57:02;3.35;;;1.50;;
49590;SDS011;35496;-21.974;-46.800;2023-02-10T10:59:36;3.33;;;1.77;;
49590;SDS011;35496;-21.974;-46.800;2023-02-10T11:02:15;3.65;;;2.00;;
49590;SDS011;35496;-21.974;-46.800;2023-02-10T11:04:46;2.78;;;1.20;;
49590;SDS011;35496;-21.974;-46.800;2023-02-10T11:07:25;1.60;;;1.50;;
49590;SDS011;35496;-21.974;-46.800;2023-02-10T11:09:53;2.97;;;1.85;;
49590;SDS011;35496;-21.974;-46.800;2023-02-10T11:12:24;2.92;;;1.50;;
49590;SDS011;35496;-21.974;-46.800;2023-02-10T11:15:15;4.10;;;1.42;;
49590;SDS011;35496;-21.974;-46.800;2023-02-10T11:17:56;2.15;;;1.60;;
49590;SDS011;35496;-21.974;-46.800;2023-02-10T11:20:27;4.80;;;2.50;;
49590;SDS011;35496;-21.974;-46.800;2023-02-10T11:25:29;2.58;;;2.03;;
49590;SDS011;35496;-21.974;-46.800;2023-02-10T11:27:58;3.30;;;2.25;;
49590;SDS011;35496;-21.974;-46.800;2023-02-10T11:30:27;19.92;;;2.17;;
49590;SDS011;35496;-21.974;-46.800;2023-02-10T11:33:02;2.17;;;1.50;;
49590;SDS011;35496;-21.974;-46.800;2023-02-10T11:35:31;3.65;;;1.55;;
49590;SDS011;35496;-21.974;-46.800;2023-02-10T11:38:03;3.33;;;1.17;;
49590;SDS011;35496;-21.974;-46.800;2023-02-10T11:43:19;2.00;;;1.35;;
49590;SDS011;35496;-21.974;-46.800;2023-02-10T11:45:56;2.38;;;1.30;;
49590;SDS011;35496;-21.974;-46.800;2023-02-10T11:48:27;4.82;;;2.72;;
49590;SDS011;35496;-21.974;-46.800;2023-02-10T11:51:06;4.47;;;2.03;;
49590;SDS011;35496;-21.974;-46.800;2023-02-10T11:53:41;5.32;;;2.45;;
49590;SDS011;35496;-21.974;-46.800;2023-02-10T11:59:35;2.60;;;2.08;;
49590;SDS011;35496;-21.974;-46.800;2023-02-10T12:02:14;3.05;;;1.38;;
49590;SDS011;35496;-21.974;-46.800;2023-02-10T12:38:52;2.63;;;2.42;;
49590;SDS011;35496;-21.974;-46.800;2023-02-10T12:50:02;4.85;;;1.80;;
49590;SDS011;35496;-21.974;-46.800;2023-02-10T12:52:46;2.40;;;1.83;;
49590;SDS011;35496;-21.974;-46.800;2023-02-10T12:55:23;8.63;;;2.42;;
49590;SDS011;35496;-21.974;-46.800;2023-02-10T12:57:56;2.17;;;1.30;;
49590;SDS011;35496;-21.974;-46.800;2023-02-10T13:00:50;3.28;;;1.73;;
49590;SDS011;35496;-21.974;-46.800;2023-02-10T13:03:21;1.58;;;1.48;;
49590;SDS011;35496;-21.974;-46.800;2023-02-10T13:05:57;2.58;;;0.80;;
49590;SDS011;35496;-21.974;-46.800;2023-02-10T13:09:00;1.13;;;1.10;;
49590;SDS011;35496;-21.974;-46.800;2023-02-10T13:11:33;2.00;;;1.63;;
49590;SDS011;35496;-21.974;-46.800;2023-02-10T13:14:16;1.50;;;1.40;;
49590;SDS011;35496;-21.974;-46.800;2023-02-10T13:16:51;1.50;;;1.35;;
49590;SDS011;35496;-21.974;-46.800;2023-02-10T13:19:26;6.97;;;2.00;;
49590;SDS011;35496;-21.974;-46.800;2023-02-10T13:24:38;2.85;;;1.70;;
49590;SDS011;35496;-21.974;-46.800;2023-02-10T13:36:19;1.15;;;1.08;;
49590;SDS011;35496;-21.974;-46.800;2023-02-10T13:38:57;0.90;;;0.90;;
49590;SDS011;35496;-21.974;-46.800;2023-02-10T13:41:29;2.50;;;1.17;;
49590;SDS011;35496;-21.974;-46.800;2023-02-10T13:46:46;3.20;;;1.85;;
49590;SDS011;35496;-21.974;-46.800;2023-02-10T13:49:24;1.20;;;1.00;;
49590;SDS011;35496;-21.974;-46.800;2023-02-10T13:51:58;3.08;;;1.48;;
49590;SDS011;35496;-21.974;-46.800;2023-02-10T13:54:30;2.42;;;2.25;;
49590;SDS011;35496;-21.974;-46.800;2023-02-10T13:56:58;2.28;;;1.08;;
49590;SDS011;35496;-21.974;-46.800;2023-02-10T13:59:35;1.38;;;1.27;;
49590;SDS011;35496;-21.974;-46.800;2023-02-10T14:02:22;3.88;;;1.80;;
49590;SDS011;35496;-21.974;-46.800;2023-02-10T14:04:51;3.30;;;1.48;;
49590;SDS011;35496;-21.974;-46.800;2023-02-10T14:10:01;5.25;;;1.65;;
49590;SDS011;35496;-21.974;-46.800;2023-02-10T14:12:31;6.85;;;2.03;;
49590;SDS011;35496;-21.974;-46.800;2023-02-10T14:15:17;1.15;;;1.15;;
49590;SDS011;35496;-21.974;-46.800;2023-02-10T14:17:59;2.13;;;1.73;;
49590;SDS011;35496;-21.974;-46.800;2023-02-10T14:20:46;2.13;;;1.65;;
49590;SDS011;35496;-21.974;-46.800;2023-02-10T14:23:20;2.08;;;1.65;;
49590;SDS011;35496;-21.974;-46.800;2023-02-10T14:25:54;6.25;;;1.77;;
49590;SDS011;35496;-21.974;-46.800;2023-02-10T14:28:36;0.93;;;0.63;;
49590;SDS011;35496;-21.974;-46.800;2023-02-10T14:31:17;1.63;;;1.50;;
49590;SDS011;35496;-21.974;-46.800;2023-02-10T14:33:53;3.92;;;1.60;;
49590;SDS011;35496;-21.974;-46.800;2023-02-10T14:36:24;2.95;;;1.50;;
49590;SDS011;35496;-21.974;-46.800;2023-02-10T14:38:54;2.13;;;1.92;;
49590;SDS011;35496;-21.974;-46.800;2023-02-10T14:41:23;2.70;;;1.73;;
49590;SDS011;35496;-21.974;-46.800;2023-02-10T14:43:53;2.22;;;1.85;;
49590;SDS011;35496;-21.974;-46.800;2023-02-10T14:46:22;3.38;;;1.77;;
49590;SDS011;35496;-21.974;-46.800;2023-02-10T14:48:52;3.28;;;1.75;;
49590;SDS011;35496;-21.974;-46.800;2023-02-10T14:51:27;3.40;;;1.70;;
49590;SDS011;35496;-21.974;-46.800;2023-02-10T14:54:06;2.70;;;1.30;;
49590;SDS011;35496;-21.974;-46.800;2023-02-10T14:56:48;2.65;;;1.83;;
49590;SDS011;35496;-21.974;-46.800;2023-02-10T15:01:59;3.42;;;1.98;;
49590;SDS011;35496;-21.974;-46.800;2023-02-10T15:04:29;2.85;;;2.38;;
49590;SDS011;35496;-21.974;-46.800;2023-02-10T15:06:57;4.97;;;2.47;;
49590;SDS011;35496;-21.974;-46.800;2023-02-10T15:09:28;5.07;;;2.00;;
49590;SDS011;35496;-21.974;-46.800;2023-02-10T15:12:06;2.90;;;1.83;;
49590;SDS011;35496;-21.974;-46.800;2023-02-10T15:15:00;2.53;;;1.40;;
49590;SDS011;35496;-21.974;-46.800;2023-02-10T15:17:46;1.08;;;1.08;;
49590;SDS011;35496;-21.974;-46.800;2023-02-10T15:20:20;1.27;;;1.20;;
49590;SDS011;35496;-21.974;-46.800;2023-02-10T15:25:27;6.03;;;2.55;;
49590;SDS011;35496;-21.974;-46.800;2023-02-10T15:27:56;2.38;;;1.60;;
49590;SDS011;35496;-21.974;-46.800;2023-02-10T15:30:25;0.77;;;0.77;;
49590;SDS011;35496;-21.974;-46.800;2023-02-10T15:32:54;1.70;;;1.60;;
49590;SDS011;35496;-21.974;-46.800;2023-02-10T15:35:22;1.30;;;1.20;;
49590;SDS011;35496;-21.974;-46.800;2023-02-10T15:37:51;4.35;;;2.10;;
49590;SDS011;35496;-21.974;-46.800;2023-02-10T15:40:26;2.65;;;1.80;;
49590;SDS011;35496;-21.974;-46.800;2023-02-10T15:42:58;3.00;;;1.25;;
49590;SDS011;35496;-21.974;-46.800;2023-02-10T15:45:47;1.95;;;1.50;;
49590;SDS011;35496;-21.974;-46.800;2023-02-10T15:48:20;2.85;;;1.85;;
49590;SDS011;35496;-21.974;-46.800;2023-02-10T15:50:49;7.03;;;2.40;;
49590;SDS011;35496;-21.974;-46.800;2023-02-10T15:53:19;2.00;;;1.73;;
49590;SDS011;35496;-21.974;-46.800;2023-02-10T15:55:46;3.50;;;1.73;;
49590;SDS011;35496;-21.974;-46.800;2023-02-10T15:58:15;3.13;;;1.98;;
49590;SDS011;35496;-21.974;-46.800;2023-02-10T16:00:42;1.80;;;1.45;;
49590;SDS011;35496;-21.974;-46.800;2023-02-10T16:03:12;1.88;;;1.73;;
49590;SDS011;35496;-21.974;-46.800;2023-02-10T16:05:39;8.18;;;1.85;;
49590;SDS011;35496;-21.974;-46.800;2023-02-10T16:08:18;1.80;;;1.27;;
49590;SDS011;35496;-21.974;-46.800;2023-02-10T16:10:47;3.40;;;1.85;;
49590;SDS011;35496;-21.974;-46.800;2023-02-10T16:13:14;1.38;;;1.27;;
49590;SDS011;35496;-21.974;-46.800;2023-02-10T16:15:45;1.85;;;1.73;;
49590;SDS011;35496;-21.974;-46.800;2023-02-10T16:18:15;2.40;;;1.67;;
49590;SDS011;35496;-21.974;-46.800;2023-02-10T16:20:45;1.67;;;1.27;;
49590;SDS011;35496;-21.974;-46.800;2023-02-10T16:23:13;2.58;;;1.83;;
49590;SDS011;35496;-21.974;-46.800;2023-02-10T16:25:42;1.73;;;1.52;;